Time;durP1;ratioP1;P1;durP2;ratioP2;P2;SDS_P1;SDS_P2;PMS_P1;PMS_P2;Temp;Humidity;BMP_temperature;BMP_pressure;BME280_temperature;BME280_humidity;BME280_pressure;Samples;Min_cycle;Max_cycle;Signal;HPM_P1;HPM_P2
2022/06/15 00:00:29;;;;;;;4.65;2.70;;;;;;;9.60;94.11;102058.69;2097112;28;25032;-69
2022/06/15 00:01:31;;;;;;;6.63;3.33;;;;;;;9.59;94.45;102051.59;2095111;28;30425;-69
2022/06/15 00:02:33;;;;;;;6.97;2.80;;;;;;;9.58;93.67;102060.50;2096143;28;25368;-69
2022/06/15 00:03:38;;;;;;;5.80;2.83;;;;;;;9.57;94.20;102054.25;2096603;28;20029;-69
2022/06/15 00:04:40;;;;;;;4.10;2.90;;;;;;;9.55;94.32;102061.41;2096954;28;21540;-69
2022/06/15 00:05:47;;;;;;;4.05;2.95;;;;;;;9.52;94.82;102056.94;2096192;28;33973;-68
2022/06/15 00:06:48;;;;;;;6.43;3.25;;;;;;;9.50;94.38;102048.03;2097094;28;26332;-69
2022/06/15 00:07:52;;;;;;;6.88;3.15;;;;;;;9.48;94.22;102049.81;2096972;28;20865;-69
2022/06/15 00:08:57;;;;;;;6.18;2.70;;;;;;;9.45;93.48;102048.91;2096628;28;34629;-69
2022/06/15 00:10:00;;;;;;;5.68;3.08;;;;;;;9.43;93.84;102048.91;2097174;28;20099;-69
2022/06/15 00:11:19;;;;;;;6.22;3.42;;;;;;;9.42;93.48;102047.16;2096936;28;22743;-69
2022/06/15 00:12:21;;;;;;;5.53;3.72;;;;;;;9.41;94.76;102050.69;2096784;28;28732;-69
2022/06/15 00:13:22;;;;;;;6.65;3.40;;;;;;;9.40;95.00;102051.56;2096534;28;24642;-70
2022/06/15 00:14:28;;;;;;;5.10;2.85;;;;;;;9.39;94.79;102041.81;2097044;28;22056;-69
2022/06/15 00:15:30;;;;;;;4.60;2.92;;;;;;;9.39;94.54;102049.81;2096729;28;32132;-69
2022/06/15 00:16:32;;;;;;;3.55;3.03;;;;;;;9.36;95.13;102044.47;2097296;28;20044;-70
2022/06/15 00:17:34;;;;;;;5.50;4.18;;;;;;;9.35;94.17;102048.03;2097085;28;20789;-68
2022/06/15 00:18:38;;;;;;;4.90;3.55;;;;;;;9.29;94.64;102042.69;2096677;28;20143;-70
2022/06/15 00:19:42;;;;;;;6.80;3.97;;;;;;;9.24;94.06;102045.38;2096875;28;23893;-69
2022/06/15 00:20:45;;;;;;;6.85;3.35;;;;;;;9.20;94.35;102048.03;2097245;28;20328;-69
2022/06/15 00:21:48;;;;;;;5.38;2.97;;;;;;;9.17;94.26;102047.13;2095824;28;20867;-70
2022/06/15 00:22:50;;;;;;;6.28;3.20;;;;;;;9.14;94.88;102044.47;2096185;28;25389;-70
2022/06/15 00:23:52;;;;;;;6.10;3.22;;;;;;;9.11;94.11;102044.44;2096811;28;22500;-70
2022/06/15 00:24:54;;;;;;;5.78;3.25;;;;;;;9.10;94.95;102048.03;2097245;28;20838;-70
2022/06/15 00:25:57;;;;;;;7.88;2.85;;;;;;;9.12;94.60;102050.69;2095918;28;25890;-70
2022/06/15 00:26:59;;;;;;;4.05;2.25;;;;;;;9.12;94.73;102059.59;2097225;28;20879;-70
2022/06/15 00:28:01;;;;;;;3.88;2.17;;;;;;;9.10;95.16;102050.69;2097020;28;20045;-70
2022/06/15 00:29:03;;;;;;;4.93;2.30;;;;;;;9.07;94.80;102049.81;2096899;28;24064;-70
2022/06/15 00:30:06;;;;;;;3.72;2.55;;;;;;;9.07;94.45;102047.13;2097051;28;20037;-70
2022/06/15 00:31:09;;;;;;;6.18;2.88;;;;;;;9.02;94.68;102043.56;2096678;28;20041;-70
2022/06/15 00:32:11;;;;;;;4.55;2.67;;;;;;;8.97;93.98;102046.22;2088206;28;21092;-70
2022/06/15 00:33:14;;;;;;;4.28;2.72;;;;;;;8.91;94.02;102044.41;2080559;28;20038;-69
2022/06/15 00:34:16;;;;;;;6.63;3.53;;;;;;;8.88;94.89;102049.78;2095062;28;20049;-69
2022/06/15 00:35:18;;;;;;;4.60;2.88;;;;;;;8.88;94.81;102046.19;2104602;28;20085;-70
2022/06/15 00:36:21;;;;;;;9.38;3.58;;;;;;;8.85;95.73;102039.09;2097034;28;20036;-70
2022/06/15 00:37:26;;;;;;;5.13;3.35;;;;;;;8.83;95.81;102046.22;2096303;28;20053;-69
2022/06/15 00:38:36;;;;;;;5.25;3.55;;;;;;;8.83;95.27;102048.88;2096649;28;20052;-69
2022/06/15 00:39:38;;;;;;;7.13;3.50;;;;;;;8.83;96.04;102047.97;2097246;28;20082;-70
2022/06/15 00:40:40;;;;;;;6.95;3.80;;;;;;;8.82;95.92;102051.53;2096799;28;20054;-70
2022/06/15 00:41:42;;;;;;;7.68;3.35;;;;;;;8.79;95.91;102047.97;2096165;28;20030;-70
2022/06/15 00:42:44;;;;;;;4.90;3.13;;;;;;;8.78;96.31;102046.19;2086753;28;41180;-70
2022/06/15 00:43:56;;;;;;;6.13;2.97;;;;;;;8.78;96.19;102046.19;2096333;28;20048;-70
2022/06/15 00:44:59;;;;;;;3.60;1.92;;;;;;;8.81;96.74;102039.06;2097082;28;20037;-70
2022/06/15 00:46:12;;;;;;;5.65;2.88;;;;;;;8.75;95.82;102051.50;2097140;28;20877;-69
2022/06/15 00:47:38;;;;;;;5.38;3.28;;;;;;;8.76;95.28;102037.28;2096044;28;20139;-70
2022/06/15 00:48:44;;;;;;;3.28;2.60;;;;;;;8.71;95.94;102039.03;2096596;28;22523;-70
2022/06/15 00:49:57;;;;;;;4.18;2.47;;;;;;;8.70;96.13;102041.72;2097085;28;20071;-70
2022/06/15 00:50:59;;;;;;;5.03;2.70;;;;;;;8.67;96.24;102034.59;2086815;28;24035;-70
2022/06/15 00:52:12;;;;;;;5.35;3.20;;;;;;;8.69;96.34;102035.47;2088685;28;20921;-69
2022/06/15 00:53:14;;;;;;;8.20;3.85;;;;;;;8.74;97.35;102033.72;2087767;28;25227;-70
2022/06/15 00:54:18;;;;;;;8.20;4.65;;;;;;;8.77;97.24;102033.75;2081002;28;20073;-70
2022/06/15 00:55:30;;;;;;;6.10;3.38;;;;;;;8.83;97.28;102029.28;2096351;28;20037;-70
2022/06/15 00:56:33;;;;;;;4.90;3.22;;;;;;;8.84;97.51;102025.72;2104026;28;27685;-69
2022/06/15 00:57:38;;;;;;;5.82;3.17;;;;;;;8.82;97.54;102027.50;2104411;28;20052;-70
2022/06/15 00:58:46;;;;;;;6.75;3.47;;;;;;;8.78;96.83;102026.59;2096257;28;20474;-70
2022/06/15 01:00:01;;;;;;;5.10;3.15;;;;;;;8.76;97.09;102029.28;2096699;28;21428;-70
2022/06/15 01:01:05;;;;;;;6.55;3.45;;;;;;;8.69;96.32;102022.13;2103678;28;23800;-69
2022/06/15 01:02:09;;;;;;;6.28;3.70;;;;;;;8.64;96.96;102028.34;2104328;28;20037;-70
2022/06/15 01:03:12;;;;;;;6.97;3.28;;;;;;;8.59;97.08;102025.66;2088009;28;27557;-70
2022/06/15 01:04:21;;;;;;;4.68;2.78;;;;;;;8.57;96.77;102031.00;2104462;28;20047;-69
2022/06/15 01:05:58;;;;;;;3.88;3.03;;;;;;;8.59;97.82;102029.22;2094586;28;20045;-70
2022/06/15 01:07:29;;;;;;;6.90;3.47;;;;;;;8.62;98.28;102039.03;2088225;28;31051;-70
2022/06/15 01:08:45;;;;;;;9.60;3.83;;;;;;;8.61;97.51;102026.53;2104473;28;20048;-69
2022/06/15 01:10:31;;;;;;;8.15;3.30;;;;;;;8.55;97.42;102030.09;2104570;28;29158;-70
2022/06/15 01:12:00;;;;;;;6.25;3.53;;;;;;;8.52;97.16;102031.88;2097049;28;20155;-70
2022/06/15 01:13:51;;;;;;;7.03;3.60;;;;;;;8.47;98.25;102029.19;2096909;28;20037;-69
2022/06/15 01:15:24;;;;;;;5.32;3.28;;;;;;;8.41;97.18;102027.34;2096990;28;20037;-70
2022/06/15 01:17:11;;;;;;;6.78;3.60;;;;;;;8.34;97.47;102030.88;2087700;28;20038;-70
2022/06/15 01:18:29;;;;;;;7.05;4.32;;;;;;;8.30;97.56;102026.41;2087440;28;20053;-69
2022/06/15 01:20:36;;;;;;;7.78;4.15;;;;;;;8.28;97.89;102027.31;2098509;28;20103;-70
2022/06/15 01:21:59;;;;;;;6.43;3.15;;;;;;;8.25;98.18;102030.84;2088570;28;20053;-69
2022/06/15 01:23:37;;;;;;;7.95;4.95;;;;;;;8.29;98.40;102030.00;2092905;28;20045;-70
2022/06/15 01:25:09;;;;;;;6.20;3.60;;;;;;;8.31;99.29;102036.22;2091692;28;20890;-70
2022/06/15 01:26:49;;;;;;;7.75;3.80;;;;;;;8.26;98.38;102031.75;2087513;28;20084;-69
2022/06/15 01:28:13;;;;;;;3.58;3.00;;;;;;;8.19;98.25;102033.50;2087738;28;20890;-70
2022/06/15 01:29:42;;;;;;;7.18;4.05;;;;;;;8.14;98.65;102033.47;2088322;28;22082;-70
2022/06/15 01:30:48;;;;;;;10.70;4.35;;;;;;;8.12;98.90;102037.91;2088645;28;20115;-70
2022/06/15 01:32:03;;;;;;;7.10;4.70;;;;;;;8.12;99.18;102026.34;2087712;28;20168;-70
2022/06/15 01:33:39;;;;;;;9.45;4.60;;;;;;;8.10;99.15;102033.47;2081026;28;28035;-70
2022/06/15 01:34:53;;;;;;;8.07;4.20;;;;;;;8.10;99.51;102030.78;2088977;28;20087;-70
2022/06/15 01:36:17;;;;;;;7.72;4.68;;;;;;;8.09;99.09;102031.66;2087708;28;25093;-70
2022/06/15 01:37:38;;;;;;;6.60;4.05;;;;;;;8.10;99.92;102042.34;2088907;28;20111;-69
2022/06/15 01:39:05;;;;;;;8.38;4.55;;;;;;;8.13;99.89;102031.69;2080915;28;21045;-70
2022/06/15 01:40:17;;;;;;;8.05;5.00;;;;;;;8.22;100.00;102033.53;2080814;28;20049;-69
2022/06/15 01:41:35;;;;;;;8.23;4.90;;;;;;;8.22;100.00;102038.84;2088470;28;25774;-70
2022/06/15 01:42:55;;;;;;;7.55;4.03;;;;;;;8.21;100.00;102037.94;2093358;28;20044;-70
2022/06/15 01:44:36;;;;;;;6.68;3.85;;;;;;;8.18;100.00;102037.94;2089122;28;20152;-70
2022/06/15 01:45:40;;;;;;;4.07;3.10;;;;;;;8.15;99.73;102037.03;2076907;28;20042;-70
2022/06/15 01:46:46;;;;;;;4.28;3.33;;;;;;;8.11;100.00;102043.22;2087783;28;21044;-70
2022/06/15 01:47:52;;;;;;;7.22;3.35;;;;;;;8.06;99.92;102037.88;2096662;28;20041;-70
2022/06/15 01:48:56;;;;;;;5.97;3.50;;;;;;;8.05;99.74;102036.09;2089690;28;20045;-69
2022/06/15 01:50:14;;;;;;;6.78;4.40;;;;;;;8.06;99.97;102043.22;2081603;28;20272;-69
2022/06/15 01:51:28;;;;;;;6.82;3.78;;;;;;;8.02;99.90;102039.66;2089175;28;25323;-69
2022/06/15 01:52:43;;;;;;;4.50;3.35;;;;;;;8.03;100.00;102035.19;2090184;28;29581;-70
2022/06/15 01:54:10;;;;;;;5.35;3.53;;;;;;;7.99;100.00;102041.41;2088686;28;20049;-69
2022/06/15 01:55:42;;;;;;;7.95;3.65;;;;;;;7.96;100.00;102030.72;2088882;28;20029;-69
2022/06/15 01:56:51;;;;;;;5.65;3.22;;;;;;;7.94;100.00;102027.16;2088498;28;20049;-69
2022/06/15 01:57:59;;;;;;;5.20;3.40;;;;;;;7.92;100.00;102029.81;2086752;28;21101;-69
2022/06/15 01:59:12;;;;;;;5.10;3.40;;;;;;;7.91;99.94;102029.78;2081857;28;20045;-69
2022/06/15 02:00:18;;;;;;;6.70;3.65;;;;;;;7.87;100.00;102026.22;2085056;28;20810;-67
2022/06/15 02:01:45;;;;;;;7.13;3.97;;;;;;;7.85;100.00;102027.97;2081024;28;20096;-69
2022/06/15 02:03:13;;;;;;;4.78;3.17;;;;;;;7.83;100.00;102019.09;2093228;28;20176;-68
2022/06/15 02:04:28;;;;;;;4.90;3.55;;;;;;;7.83;100.00;102021.75;2111792;28;20833;-69
2022/06/15 02:06:01;;;;;;;4.43;2.95;;;;;;;7.82;100.00;102019.97;2104200;28;20839;-69
2022/06/15 02:07:27;;;;;;;7.72;3.70;;;;;;;7.82;100.00;102018.22;2092650;28;21166;-69
2022/06/15 02:08:59;;;;;;;5.65;4.10;;;;;;;7.85;100.00;102025.31;2092364;28;21301;-69
2022/06/15 02:10:17;;;;;;;8.02;4.50;;;;;;;7.90;100.00;102020.91;2092872;28;20945;-69
2022/06/15 02:11:31;;;;;;;7.07;4.60;;;;;;;7.93;100.00;102018.25;2090983;28;20095;-68
2022/06/15 02:12:52;;;;;;;6.80;3.90;;;;;;;7.94;100.00;102025.38;2081957;28;20097;-69
2022/06/15 02:14:22;;;;;;;7.60;5.20;;;;;;;8.04;100.00;102021.00;2079533;28;20087;-69
2022/06/15 02:15:28;;;;;;;12.15;5.57;;;;;;;8.14;100.00;102024.56;2091230;28;20052;-68
2022/06/15 02:16:49;;;;;;;7.53;5.40;;;;;;;8.13;100.00;102014.78;2081785;28;20065;-69
2022/06/15 02:17:57;;;;;;;7.72;4.68;;;;;;;8.15;100.00;102023.72;2102376;28;20928;-69
2022/06/15 02:19:03;;;;;;;9.70;5.10;;;;;;;8.12;100.00;102018.34;2088093;28;20084;-69
2022/06/15 02:20:21;;;;;;;8.88;5.00;;;;;;;8.11;100.00;102013.88;2074519;28;20089;-68
2022/06/15 02:21:26;;;;;;;7.80;4.65;;;;;;;8.11;100.00;102011.22;2093770;28;20056;-69
2022/06/15 02:22:33;;;;;;;8.05;5.80;;;;;;;8.10;100.00;102007.66;2096294;28;20029;-69
2022/06/15 02:23:38;;;;;;;7.63;4.82;;;;;;;8.09;100.00;102008.53;2089942;28;20037;-69
2022/06/15 02:24:43;;;;;;;9.23;5.60;;;;;;;8.10;100.00;102004.13;2090102;28;20175;-69
2022/06/15 02:25:50;;;;;;;7.57;5.50;;;;;;;8.10;100.00;102005.00;2098011;28;20040;-68
2022/06/15 02:26:52;;;;;;;8.23;5.57;;;;;;;8.12;100.00;102010.34;2088573;28;20045;-69
2022/06/15 02:27:55;;;;;;;8.13;5.43;;;;;;;8.13;100.00;102006.78;2090218;28;20045;-69
2022/06/15 02:29:04;;;;;;;8.93;5.43;;;;;;;8.15;100.00;102013.03;2088284;28;20163;-69
2022/06/15 02:30:23;;;;;;;12.43;6.13;;;;;;;8.17;100.00;102009.47;2077319;28;20046;-68
2022/06/15 02:31:31;;;;;;;9.18;5.30;;;;;;;8.18;100.00;102015.69;2095051;28;21387;-69
2022/06/15 02:32:42;;;;;;;7.75;5.65;;;;;;;8.22;100.00;102017.50;2104858;28;20040;-69
2022/06/15 02:33:56;;;;;;;8.88;5.85;;;;;;;8.17;100.00;102008.59;2088770;28;20025;-69
2022/06/15 02:34:59;;;;;;;7.85;5.45;;;;;;;8.15;100.00;102010.38;2085323;28;20151;-69
2022/06/15 02:36:02;;;;;;;10.48;5.97;;;;;;;8.13;100.00;102009.44;2096549;28;20048;-68
2022/06/15 02:37:06;;;;;;;8.90;4.65;;;;;;;8.11;100.00;102008.53;2097105;28;20084;-69
2022/06/15 02:38:11;;;;;;;8.60;5.38;;;;;;;8.09;100.00;102010.31;2097005;28;20159;-69
2022/06/15 02:39:15;;;;;;;9.95;4.97;;;;;;;8.07;100.00;102012.97;2096735;28;20974;-69
2022/06/15 02:40:22;;;;;;;13.60;7.70;;;;;;;8.11;100.00;102013.88;2097336;28;20033;-69
2022/06/15 02:41:25;;;;;;;8.95;6.10;;;;;;;8.07;100.00;102007.63;2095908;28;20053;-69
2022/06/15 02:42:33;;;;;;;9.35;6.28;;;;;;;8.12;100.00;102010.34;2097385;28;20122;-68
2022/06/15 02:43:44;;;;;;;11.30;6.78;;;;;;;8.09;100.00;102005.00;2113706;28;20040;-69
2022/06/15 02:44:48;;;;;;;10.77;6.25;;;;;;;8.06;100.00;102005.88;2105446;28;20048;-69
2022/06/15 02:45:51;;;;;;;11.75;7.22;;;;;;;8.06;100.00;102004.97;2079964;28;20045;-70
2022/06/15 02:46:58;;;;;;;11.60;6.32;;;;;;;8.03;100.00;102006.75;2080595;28;20151;-70
2022/06/15 02:48:05;;;;;;;10.52;6.28;;;;;;;8.01;100.00;102013.84;2079876;28;20042;-69
2022/06/15 02:49:07;;;;;;;8.70;6.28;;;;;;;7.99;100.00;102004.06;2081753;28;20919;-70
2022/06/15 02:50:17;;;;;;;12.30;6.93;;;;;;;7.98;100.00;101996.94;2096050;28;20114;-68
2022/06/15 02:51:49;;;;;;;11.70;6.40;;;;;;;7.97;100.00;102001.38;2089518;28;20192;-69
2022/06/15 02:53:11;;;;;;;11.93;6.95;;;;;;;8.02;100.00;102015.66;2084366;28;20886;-69
2022/06/15 02:54:25;;;;;;;7.72;5.85;;;;;;;7.98;100.00;102010.28;2090744;28;20037;-69
2022/06/15 02:55:34;;;;;;;10.50;6.15;;;;;;;8.03;100.00;102013.84;2088516;28;20132;-69
2022/06/15 02:56:38;;;;;;;12.80;6.80;;;;;;;8.00;100.00;102009.41;2090965;28;20068;-69
2022/06/15 02:58:21;;;;;;;7.50;5.53;;;;;;;7.98;100.00;102010.28;2088713;28;20906;-70
2022/06/15 02:59:27;;;;;;;11.32;6.18;;;;;;;7.95;100.00;102005.81;2101696;28;20115;-70
2022/06/15 03:00:31;;;;;;;10.15;6.88;;;;;;;7.98;100.00;102000.47;2096366;28;20049;-69
2022/06/15 03:01:37;;;;;;;12.23;7.40;;;;;;;8.00;100.00;102004.09;2096539;28;25593;-69
2022/06/15 03:02:39;;;;;;;12.23;7.43;;;;;;;8.05;100.00;102003.19;2098135;28;20037;-69
2022/06/15 03:03:41;;;;;;;14.82;8.20;;;;;;;8.07;100.00;102010.31;2105435;28;20821;-69
2022/06/15 03:04:50;;;;;;;13.38;8.50;;;;;;;8.10;100.00;102005.00;2113293;28;20048;-70
2022/06/15 03:05:56;;;;;;;13.95;7.88;;;;;;;8.09;100.00;102005.88;2105042;28;20055;-70
2022/06/15 03:06:57;;;;;;;14.52;8.50;;;;;;;8.17;100.00;102008.59;2088504;28;20155;-69
2022/06/15 03:08:02;;;;;;;13.00;7.57;;;;;;;8.14;100.00;102005.91;2097230;28;20033;-69
2022/06/15 03:09:04;;;;;;;14.57;8.45;;;;;;;8.16;100.00;102007.69;2096511;28;21063;-70
2022/06/15 03:10:14;;;;;;;14.45;8.20;;;;;;;8.15;100.00;102010.38;2089318;28;20037;-70
2022/06/15 03:11:16;;;;;;;10.65;7.80;;;;;;;8.15;100.00;102005.91;2089327;28;20151;-69
2022/06/15 03:12:18;;;;;;;11.07;7.13;;;;;;;8.12;100.00;102011.22;2088411;28;20049;-70
2022/06/15 03:13:20;;;;;;;10.38;6.70;;;;;;;8.14;100.00;102008.56;2097215;28;20135;-70
2022/06/15 03:14:22;;;;;;;11.77;7.05;;;;;;;8.13;100.00;102012.09;2097121;28;20037;-70
2022/06/15 03:15:29;;;;;;;10.65;6.72;;;;;;;8.13;100.00;102012.09;2088628;28;20115;-70
2022/06/15 03:16:34;;;;;;;10.95;6.60;;;;;;;8.12;100.00;102007.69;2097164;28;21002;-70
2022/06/15 03:17:37;;;;;;;15.15;8.38;;;;;;;8.14;100.00;102003.22;2088787;28;20894;-70
2022/06/15 03:18:42;;;;;;;10.57;7.05;;;;;;;8.12;100.00;102008.56;2089285;28;20045;-70
2022/06/15 03:19:47;;;;;;;12.13;8.15;;;;;;;8.18;100.00;102007.69;2096816;28;20164;-70
2022/06/15 03:20:50;;;;;;;13.48;7.35;;;;;;;8.15;100.00;102005.91;2096752;28;20052;-70
2022/06/15 03:21:55;;;;;;;10.95;7.18;;;;;;;8.16;100.00;102012.13;2097178;28;20921;-70
2022/06/15 03:22:59;;;;;;;11.73;7.68;;;;;;;8.17;100.00;102008.59;2096756;28;20040;-70
2022/06/15 03:24:01;;;;;;;9.85;6.82;;;;;;;8.16;100.00;102009.47;2097329;28;20049;-70
2022/06/15 03:25:05;;;;;;;13.40;7.78;;;;;;;8.18;100.00;102010.34;2113525;28;20140;-70
2022/06/15 03:26:08;;;;;;;9.50;6.60;;;;;;;8.19;100.00;102014.81;2104411;28;20037;-70
2022/06/15 03:27:14;;;;;;;9.40;6.45;;;;;;;8.17;100.00;102011.25;2088434;28;20033;-70
2022/06/15 03:28:18;;;;;;;7.75;5.70;;;;;;;8.16;100.00;102004.13;2089203;28;20052;-65
2022/06/15 03:29:24;;;;;;;8.65;6.05;;;;;;;8.15;100.00;102013.91;2088633;28;20135;-70
2022/06/15 03:30:30;;;;;;;10.60;6.55;;;;;;;8.12;100.00;102005.88;2088966;28;20091;-70
2022/06/15 03:31:37;;;;;;;8.43;5.53;;;;;;;8.11;100.00;102009.47;2097363;28;20045;-70
2022/06/15 03:32:39;;;;;;;7.95;5.70;;;;;;;8.09;100.00;102011.19;2104838;28;20041;-70
2022/06/15 03:33:40;;;;;;;9.18;6.07;;;;;;;8.11;100.00;102014.78;2096239;28;20045;-70
2022/06/15 03:34:51;;;;;;;10.27;5.85;;;;;;;8.10;100.00;102010.34;2097214;28;20139;-70
2022/06/15 03:35:55;;;;;;;10.70;6.43;;;;;;;8.11;100.00;102006.78;2096311;28;20126;-69
2022/06/15 03:37:00;;;;;;;9.88;6.05;;;;;;;8.15;100.00;102010.38;2097457;28;20875;-70
2022/06/15 03:38:08;;;;;;;9.98;6.22;;;;;;;8.15;100.00;102005.03;2096610;28;20037;-70
2022/06/15 03:39:12;;;;;;;10.82;6.55;;;;;;;8.16;100.00;102007.69;2089867;28;20049;-70
2022/06/15 03:40:18;;;;;;;8.63;6.20;;;;;;;8.19;100.00;101999.69;2088437;28;20053;-70
2022/06/15 03:41:23;;;;;;;12.00;7.05;;;;;;;8.22;100.00;102006.84;2097626;28;20037;-71
2022/06/15 03:42:30;;;;;;;9.70;6.50;;;;;;;8.25;100.00;102001.50;2113250;28;20051;-70
2022/06/15 03:43:33;;;;;;;10.57;5.72;;;;;;;8.26;100.00;102010.41;2104393;28;20063;-69
2022/06/15 03:44:36;;;;;;;10.15;7.03;;;;;;;8.27;100.00;102002.38;2096878;28;20045;-70
2022/06/15 03:45:42;;;;;;;10.43;6.85;;;;;;;8.33;100.00;101998.88;2105116;28;20191;-70
2022/06/15 03:46:44;;;;;;;15.60;9.45;;;;;;;8.44;100.00;102001.63;2096403;28;20045;-70
2022/06/15 03:47:57;;;;;;;17.13;8.57;;;;;;;8.49;100.00;102000.72;2089494;28;20053;-70
2022/06/15 03:49:02;;;;;;;11.10;7.43;;;;;;;8.52;100.00;101994.50;2096771;28;20045;-70
2022/06/15 03:50:05;;;;;;;11.35;7.43;;;;;;;8.54;100.00;101990.06;2096554;28;20037;-69
2022/06/15 03:51:08;;;;;;;11.30;7.35;;;;;;;8.58;100.00;101998.09;2095532;28;20048;-70
2022/06/15 03:52:25;;;;;;;11.35;6.95;;;;;;;8.62;100.00;101993.66;2090139;28;20041;-70
2022/06/15 03:53:28;;;;;;;11.27;7.22;;;;;;;8.67;100.00;101993.63;2088824;28;20092;-70
2022/06/15 03:54:31;;;;;;;9.25;5.85;;;;;;;8.71;100.00;101993.66;2088636;28;20771;-69
2022/06/15 03:55:38;;;;;;;10.55;7.30;;;;;;;8.73;100.00;101991.88;2097129;28;20094;-70
2022/06/15 03:56:48;;;;;;;10.85;7.22;;;;;;;8.79;100.00;101985.66;2088422;28;20052;-70
2022/06/15 03:58:02;;;;;;;12.60;8.23;;;;;;;8.83;100.00;101991.88;2093825;28;20171;-69
2022/06/15 03:59:05;;;;;;;11.50;8.50;;;;;;;8.87;100.00;101983.00;2104843;28;21170;-70
2022/06/15 04:00:14;;;;;;;10.43;7.35;;;;;;;8.90;100.00;101983.91;2096286;28;20049;-70
2022/06/15 04:01:26;;;;;;;11.18;7.15;;;;;;;8.95;100.00;101978.53;2095762;28;20041;-70
2022/06/15 04:02:28;;;;;;;14.35;8.50;;;;;;;9.05;100.00;101982.13;2097094;28;20084;-70
2022/06/15 04:03:35;;;;;;;16.15;8.77;;;;;;;9.18;100.00;101979.44;2087872;28;20176;-70
2022/06/15 04:04:41;;;;;;;12.70;8.75;;;;;;;9.39;100.00;101972.31;2082206;28;20042;-70
2022/06/15 04:05:52;;;;;;;11.63;8.38;;;;;;;9.65;100.00;101980.25;2088321;28;20108;-70
2022/06/15 04:06:59;;;;;;;11.88;7.95;;;;;;;10.05;99.33;101979.22;2089901;28;20042;-71
2022/06/15 04:09:26;;;;;;;9.65;6.88;;;;;;;11.08;97.71;101974.16;2096325;28;20049;-71
2022/06/15 04:10:36;;;;;;;6.78;5.95;;;;;;;11.65;94.61;101967.38;2089666;28;20045;-71
2022/06/15 04:12:01;;;;;;;8.13;5.75;;;;;;;12.16;92.18;101967.69;2096922;28;20040;-71
2022/06/15 04:13:07;;;;;;;11.05;5.47;;;;;;;12.69;88.30;101972.34;2096450;28;21111;-71
2022/06/15 04:14:10;;;;;;;7.45;5.05;;;;;;;13.03;85.01;101971.78;2087985;28;20172;-71
2022/06/15 04:15:16;;;;;;;8.95;5.40;;;;;;;13.49;83.31;101957.56;2097040;28;20127;-71
2022/06/15 04:16:26;;;;;;;6.82;4.55;;;;;;;14.02;80.76;101961.00;2096694;28;20025;-71
2022/06/15 04:17:29;;;;;;;7.57;4.40;;;;;;;14.56;78.04;101961.66;2096435;28;20893;-71
2022/06/15 04:18:56;;;;;;;5.47;3.83;;;;;;;15.16;75.98;101966.47;2093648;28;20053;-71
2022/06/15 04:21:24;;;;;;;7.07;3.78;;;;;;;16.25;70.65;101964.41;2096454;28;20231;-72
2022/06/15 04:22:27;;;;;;;6.25;3.65;;;;;;;16.69;68.98;101960.31;2095948;28;20100;-72
2022/06/15 04:23:31;;;;;;;5.43;3.60;;;;;;;17.06;66.25;101972.66;2097050;28;20260;-72
2022/06/15 04:24:33;;;;;;;5.28;3.00;;;;;;;17.72;65.14;101961.34;2096605;28;20179;-72
2022/06/15 04:25:51;;;;;;;5.47;3.13;;;;;;;18.20;63.53;101962.31;2096587;28;20048;-72
2022/06/15 04:26:57;;;;;;;5.38;2.70;;;;;;;18.73;61.11;101947.56;2104974;28;20821;-72
2022/06/15 04:28:02;;;;;;;5.43;3.03;;;;;;;18.95;58.49;101955.72;2096910;28;20937;-72
2022/06/15 04:29:05;;;;;;;6.20;3.05;;;;;;;19.19;59.39;101946.53;2097011;28;20221;-71
2022/06/15 04:30:11;;;;;;;4.80;2.38;;;;;;;19.71;57.67;101948.78;2096847;28;20037;-73
2022/06/15 04:31:16;;;;;;;3.70;3.08;;;;;;;19.98;56.66;101945.78;2088810;28;20083;-72
2022/06/15 04:32:18;;;;;;;3.83;2.70;;;;;;;20.14;55.90;101955.00;2088226;28;20046;-72
2022/06/15 04:33:24;;;;;;;6.75;2.80;;;;;;;20.32;53.31;101946.94;2088428;28;20106;-72
2022/06/15 04:34:27;;;;;;;6.28;2.88;;;;;;;20.53;54.27;101940.44;2096893;28;20167;-72
2022/06/15 04:35:31;;;;;;;5.30;2.60;;;;;;;20.69;53.22;101939.72;2096562;28;20179;-71
2022/06/15 04:36:37;;;;;;;3.20;2.20;;;;;;;20.90;52.80;101949.53;2088570;28;20034;-72
2022/06/15 04:37:40;;;;;;;7.43;3.13;;;;;;;21.15;52.03;101951.00;2080493;28;20795;-71
2022/06/15 04:38:51;;;;;;;3.78;2.28;;;;;;;21.38;50.93;101943.50;2082953;28;20046;-72
2022/06/15 04:40:01;;;;;;;5.20;2.33;;;;;;;21.62;48.59;101942.22;2089156;28;20819;-72
2022/06/15 04:41:03;;;;;;;5.32;2.17;;;;;;;21.62;48.96;101941.34;2087893;28;20050;-71
2022/06/15 04:42:08;;;;;;;6.63;2.58;;;;;;;21.50;48.75;101941.03;2088078;28;20830;-72
2022/06/15 04:43:12;;;;;;;3.97;2.25;;;;;;;21.53;47.21;101938.16;2096216;28;20771;-72
2022/06/15 04:44:14;;;;;;;4.25;2.40;;;;;;;21.50;48.26;101942.88;2088319;28;20128;-72
2022/06/15 04:45:20;;;;;;;3.42;2.30;;;;;;;21.93;48.71;101936.00;2088693;28;20045;-71
2022/06/15 04:46:35;;;;;;;4.30;2.30;;;;;;;21.91;47.77;101939.75;2089838;28;20089;-65
2022/06/15 04:47:39;;;;;;;3.03;1.77;;;;;;;22.29;46.60;101942.25;2079913;28;20040;-72
2022/06/15 04:48:42;;;;;;;6.13;2.30;;;;;;;22.80;47.00;101940.19;2097334;28;20775;-72
2022/06/15 04:49:45;;;;;;;4.78;2.50;;;;;;;22.46;46.28;101938.53;2104172;28;20049;-73
2022/06/15 04:50:47;;;;;;;5.85;2.65;;;;;;;22.77;46.45;101940.38;2088078;28;20037;-72
2022/06/15 04:51:50;;;;;;;4.85;2.10;;;;;;;22.69;46.41;101938.09;2088185;28;20060;-72
2022/06/15 04:52:52;;;;;;;3.50;1.58;;;;;;;23.42;45.47;101944.78;2088088;28;20037;-72
2022/06/15 04:53:54;;;;;;;5.18;2.45;;;;;;;22.96;45.18;101942.91;2079318;28;20172;-72
2022/06/15 04:54:56;;;;;;;6.55;2.08;;;;;;;23.40;43.35;101943.97;2088447;28;21203;-72
2022/06/15 04:55:59;;;;;;;5.68;1.70;;;;;;;23.41;44.81;101940.25;2096280;28;20084;-72
2022/06/15 04:57:03;;;;;;;3.83;2.40;;;;;;;23.40;43.06;101946.69;2088149;28;20882;-72
2022/06/15 04:58:05;;;;;;;4.85;1.77;;;;;;;23.85;42.53;101949.44;2096217;28;20881;-72
2022/06/15 04:59:13;;;;;;;7.43;1.92;;;;;;;23.72;42.94;101946.56;2088171;28;20037;-73
2022/06/15 05:00:18;;;;;;;4.53;2.30;;;;;;;23.69;42.74;101955.84;2096620;28;20235;-72
2022/06/15 05:01:20;;;;;;;3.38;2.15;;;;;;;24.37;41.63;101951.56;2087893;28;21210;-72
2022/06/15 05:02:24;;;;;;;3.50;1.90;;;;;;;24.28;41.50;101946.69;2088471;28;21321;-73
2022/06/15 05:03:28;;;;;;;4.32;1.80;;;;;;;23.96;41.46;101953.25;2087471;28;20184;-73
2022/06/15 05:04:30;;;;;;;4.57;1.75;;;;;;;24.28;41.54;101949.44;2088146;28;20038;-73
2022/06/15 05:05:33;;;;;;;5.70;2.10;;;;;;;24.34;39.68;101955.38;2089635;28;20234;-73
2022/06/15 05:06:41;;;;;;;5.53;1.80;;;;;;;24.69;41.02;101944.03;2095920;28;20049;-72
2022/06/15 05:07:45;;;;;;;4.85;1.85;;;;;;;24.31;39.14;101950.09;2088342;28;20168;-73
2022/06/15 05:08:47;;;;;;;2.92;1.42;;;;;;;24.66;40.13;101940.59;2096332;28;20037;-73
2022/06/15 05:09:51;;;;;;;3.85;1.88;;;;;;;24.83;39.48;101944.94;2095969;28;20044;-72
2022/06/15 05:10:55;;;;;;;3.20;1.73;;;;;;;24.28;41.21;101953.06;2096190;28;20053;-72
2022/06/15 05:11:56;;;;;;;5.60;1.95;;;;;;;24.37;41.74;101948.81;2087444;28;20160;-72
2022/06/15 05:13:01;;;;;;;4.35;1.52;;;;;;;25.11;40.89;101949.44;2096452;28;20110;-73
2022/06/15 05:14:05;;;;;;;3.70;1.75;;;;;;;25.36;39.95;101945.91;2104579;28;20838;-72
2022/06/15 05:15:14;;;;;;;3.78;1.80;;;;;;;24.36;39.51;101953.44;2096315;28;20041;-71
2022/06/15 05:16:16;;;;;;;3.28;1.60;;;;;;;25.50;39.58;101953.16;2088171;28;20041;-72
2022/06/15 05:17:21;;;;;;;3.58;1.33;;;;;;;25.64;38.52;101953.06;2104663;28;20247;-71
2022/06/15 05:18:24;;;;;;;4.07;1.70;;;;;;;25.86;38.15;101949.69;2103393;28;20084;-71
2022/06/15 05:19:30;;;;;;;8.27;2.08;;;;;;;25.69;37.58;101944.50;2088024;28;20093;-71
2022/06/15 05:20:38;;;;;;;5.25;2.03;;;;;;;25.31;38.38;101956.31;2087999;28;20163;-72
2022/06/15 05:21:44;;;;;;;6.78;1.73;;;;;;;26.40;37.21;101940.28;2088908;28;20037;-72
2022/06/15 05:22:51;;;;;;;4.28;1.95;;;;;;;26.40;35.52;101942.19;2088407;28;20042;-72
2022/06/15 05:23:57;;;;;;;4.90;1.77;;;;;;;26.24;35.26;101946.03;2088643;28;20041;-72
2022/06/15 05:25:32;;;;;;;3.78;1.70;;;;;;;26.00;35.63;101945.94;2079285;28;20046;-72